Aktualne dane pomiarowe

Uwaga, wersja testowa! Automatyczne pobieranie danych za pomocą narzędzi lub skryptów to umożliwiających jest zabronione.

Dane meteo z obszaru Polski uzyskane na podstawie depesz SYNOP pobieranych co godzinę z NWS. Najedź myszką na symbol przedstawiony w tabeli, aby uzyskać informacje co do jego znaczenia. Prosimy pamiętać, że to testowa wersja strony, która jeszcze nie jest ukończona. Stworzono również jest krótki FAQ dotyczący korzystania z tej podstrony Anomalie temperatury w chwili obecnej odniesione są do okresu referencyjnego 1951-2016. Okres ten będzie później zmieniony na 1981-2010. Kliknij ikonę aby pobrać plik CSV. Kliknij ikonę aby wygenerować mapę synoptyczną dla danego terminu.

Wybierz Datę:    

        

Sulejów (12469)

Dane terminowe dla wybranej stacji. Kliknij datę, aby otrzymać dane z tego terminu dla wszystkich stacji.

TemperaturaZachmurzenieWiatrCiśnienieOpadyPogoda
 Data t td wb tx tn tg rh  Nt Nl Cl Cm Ch ws wd g1 g2 wx mslp ppp ch 24h 12h t ww ww w1 w2  
2019-08-08 23:00:00 14.9 12.8 13.4--- 8725.0wx-wx2wx--21012.8 990.3 0.7---------
2019-08-08 22:00:00 15.5 13.4 14.0--- 8725.0wx-wx2wx--21012.7 990.3 0.9---------
2019-08-08 21:00:00 16.0 14.3 14.8--- 9020.0wx-wxwx2wx--21012.3 989.9 0.2---wx-w1--
2019-08-08 20:00:00 16.4 15.2 15.5--- 9316.0wx-wxwx2wx---1011.9 989.6 0.6---------
2019-08-08 19:00:00 17.7 14.9 15.8--- 8425.0wxwxwxwxwx1wx--11011.6 989.4 0.5---wx---
2019-08-08 18:00:00 19.6 14.1 16.0 26.2 18.5- 7120.0wxwxwx4wx-1341011.8 989.7 0.6--12wx-w1--
2019-08-08 17:00:00 23.6 11.9 16.5--- 4845.0wxwxwxwx3wx--31010.8 989.0 -0.3---------
2019-08-08 16:00:00 25.5 9.6 16.2--- 3740.0wxwxwxwx5wx---1010.5 988.9 -0.4---------
2019-08-08 15:00:00 25.3 9.9 16.3--- 3840.0wxwxwxwx5wx---1010.7 989.1 -0.2---------
2019-08-08 14:00:00 25.4 11.1 16.8--- 4135.0wxwxwxwx5wx--51010.9 989.3 0.4---------
2019-08-08 13:00:00 25.3 10.6 16.6--- 4035.0wxwxwxwx6wx-1161010.9 989.3 0.5---------
2019-08-08 12:00:00 25.1 10.8 16.6--- 4135.0wxwxwx7wx-1371011.0 989.3 1.1- 0.06------
2019-08-08 11:00:00 24.5 13.0 17.4--- 4935.0wxwxwx7wx--71010.6 988.9 1.0---------
2019-08-08 10:00:00 23.6 13.9 17.5--- 5535.0wxwxwx7wx121371010.6 988.8 1.4---------
2019-08-08 09:00:00 22.0 15.7 17.8--- 6825.0wxwxwx7wx--71010.1 988.2 1.4---------
2019-08-08 08:00:00 21.0 16.1 17.7--- 7425.0wxwxwx6wx--61009.8 987.9 2.0---------
2019-08-08 07:00:00 19.7 17.0 17.8--- 8418.0wxwxwx7wx--71009.4 987.4 2.2---------
2019-08-08 06:00:00 18.5 16.9 17.3 24.0 17.5 17 9010.0wxwxwx6wx--61008.9 986.8 2.2 4.4 4.012wx-w1- 4.4
2019-08-08 05:00:00 18.0 16.9 17.2--- 938.0wxwxwx5wx---1008.0 985.9 1.4---wx---
2019-08-08 04:00:00 17.5 16.6 16.8--- 9418.0wxwxwx4wx---1007.3 985.2 0.8---------
2019-08-08 03:00:00 17.6 16.9 17.1--- 9615.0wxwxwxwx3wx--31006.7 984.6 0.3---wx---
2019-08-08 02:00:00 18.1 17.2 17.4--- 948.0wxwxwx4wx--41006.6 984.5 0.3---wx-w1w2--
2019-08-08 01:00:00 18.5 17.6 17.8--- 958.0wxwxwxwx3wx--31006.5 984.4 0.1---wx-w1w2--
2019-08-08 00:00:00 18.7 17.9 18.1--- 9510.0wxwxwxwx3wx-1531006.3 984.3 0.4- 2.06wx-w1--
2019-08-07 23:00:00 19.1 18.0 18.3--- 9315.0wxwxwxwx4wx--41006.2 984.2 0.3---wx-w1--
2019-08-07 22:00:00 19.1 17.8 18.2--- 9220.0wxwxwxwx6wx-1561006.3 984.3 0.1---wx-w1w2--
2019-08-07 21:00:00 20.5 18.2 18.8--- 8718.0wxwxwx3wx--31005.8 983.9 -0.4---wx---
2019-08-07 20:00:00 21.4 17.9 18.9--- 8135.0wxwxwxwxwx3wx---1005.7 983.9 -0.8---wx---
2019-08-07 19:00:00 22.4 16.6 18.5--- 7045.0wxwxwxwxwx2wx---1006.0 984.2 -0.5---------
2019-08-07 18:00:00 24.0 16.7 19.1 26.8 19.0- 6445.0wxwxwxwxwx1wx--11005.9 984.3 -0.9--12------
2019-08-07 17:00:00 25.4 16.2 19.4--- 5745.0wxwxwxwxwx2wx--21006.2 984.7 -1.0---------
2019-08-07 16:00:00 26.2 16.4 19.8--- 5545.0wxwxwxwx2wx--21006.2 984.7 -1.3---------
2019-08-07 15:00:00 26.4 15.7 19.5--- 5245.0wxwxwxwx4wx--41006.7 985.2 -1.2---------
2019-08-07 14:00:00 25.1 15.9 19.1--- 5740.0wxwxwxwx3wx---1007.3 985.7 -1.5---------
2019-08-07 13:00:00 24.4 16.8 19.3--- 6335.0wxwxwxwxwx2wx--21007.6 986.0 -1.7---------
2019-08-07 12:00:00 23.4 17.3 19.3--- 6935.0wxwxwxwx3wx--31008.1 986.4 -1.0--6wx-w1--
2019-08-07 11:00:00 23.8 16.5 18.9--- 6435.0wxwxwxwx4wx--41008.9 987.2 0.0---wx-w1--
2019-08-07 10:00:00 22.4 16.8 18.6--- 7130.0wxwxwxwx2wx--21009.5 987.7 0.6---wx---
2019-08-07 09:00:00 22.3 16.7 18.5--- 7135.0wx-wxwx3wx---1009.2 987.4 0.6---------
2019-08-07 08:00:00 21.5 17.2 18.5--- 7730.0wx-wxwx2wx--21009.1 987.2 0.3---------
2019-08-07 07:00:00 20.3 17.4 18.2--- 8325.0wx-wxwx3wx--31009.1 987.1 0.3---------
2019-08-07 06:00:00 19.0 17.0 17.6 26.0 16.7 15 8820.0wxwxwxwxwx2wx--21008.9 986.8 0.3 6.4 6.012wx-w1w2- 8.4
2019-08-07 05:00:00 17.7 16.5 16.8--- 9315.0wxwxwxwxwx1wx--11009.1 986.9 0.2---------
2019-08-07 04:00:00 16.9 15.8 16.1--- 9315.0wxwxwxwxwx1wx---1009.0 986.8 0.0---------
2019-08-07 03:00:00 16.7 15.8 16.0--- 9414.0wxwxwxwxwx2wx--21008.7 986.5 -0.8---wx-w1w2--
2019-08-07 02:00:00 17.3 16.4 16.6--- 9415.0wx-wx1wx--11008.9 986.7 -1.0---------
2019-08-07 01:00:00 18.0 17.1 17.3--- 9415.0wxwxwxwx1wx--11008.9 986.8 -0.4---wx-w1--
2019-08-07 00:00:00 18.4 17.5 17.7--- 9520.0wxwxwx1wx--11009.4 987.3 0.3- 6.06wx-w1--
1.8 ms

 

Print Friendly, PDF & Email